sensor_id;sensor_type;location;lat;lon;timestamp;P1;durP1;ratioP1;P2;durP2;ratioP2
24173;SDS011;12324;48.146;11.502;2023-05-10T00:01:35;4.97;;;1.90;;
24173;SDS011;12324;48.146;11.502;2023-05-10T00:04:02;2.17;;;1.50;;
24173;SDS011;12324;48.146;11.502;2023-05-10T00:06:30;4.32;;;2.08;;
24173;SDS011;12324;48.146;11.502;2023-05-10T00:08:57;2.22;;;1.52;;
24173;SDS011;12324;48.146;11.502;2023-05-10T00:11:24;4.30;;;1.83;;
24173;SDS011;12324;48.146;11.502;2023-05-10T00:13:51;4.40;;;1.77;;
24173;SDS011;12324;48.146;11.502;2023-05-10T00:16:18;1.95;;;1.50;;
24173;SDS011;12324;48.146;11.502;2023-05-10T00:18:46;2.55;;;1.67;;
24173;SDS011;12324;48.146;11.502;2023-05-10T00:21:13;2.25;;;1.60;;
24173;SDS011;12324;48.146;11.502;2023-05-10T00:23:40;3.42;;;1.65;;
24173;SDS011;12324;48.146;11.502;2023-05-10T00:26:07;1.75;;;1.60;;
24173;SDS011;12324;48.146;11.502;2023-05-10T00:28:34;3.50;;;1.77;;
24173;SDS011;12324;48.146;11.502;2023-05-10T00:31:01;2.13;;;1.80;;
24173;SDS011;12324;48.146;11.502;2023-05-10T00:33:28;1.67;;;1.58;;
24173;SDS011;12324;48.146;11.502;2023-05-10T00:35:55;4.30;;;2.10;;
24173;SDS011;12324;48.146;11.502;2023-05-10T00:38:22;2.22;;;1.35;;
24173;SDS011;12324;48.146;11.502;2023-05-10T00:40:49;1.75;;;1.45;;
24173;SDS011;12324;48.146;11.502;2023-05-10T00:43:16;1.95;;;1.33;;
24173;SDS011;12324;48.146;11.502;2023-05-10T00:45:43;1.13;;;1.02;;
24173;SDS011;12324;48.146;11.502;2023-05-10T00:48:11;2.40;;;1.60;;
24173;SDS011;12324;48.146;11.502;2023-05-10T00:50:38;3.17;;;1.40;;
24173;SDS011;12324;48.146;11.502;2023-05-10T00:53:06;1.98;;;1.38;;
24173;SDS011;12324;48.146;11.502;2023-05-10T00:55:34;3.40;;;1.42;;
24173;SDS011;12324;48.146;11.502;2023-05-10T00:58:01;2.45;;;1.13;;
24173;SDS011;12324;48.146;11.502;2023-05-10T01:00:28;2.35;;;1.33;;
24173;SDS011;12324;48.146;11.502;2023-05-10T01:02:55;1.15;;;1.05;;
24173;SDS011;12324;48.146;11.502;2023-05-10T01:05:22;1.10;;;1.00;;
24173;SDS011;12324;48.146;11.502;2023-05-10T01:07:49;1.70;;;1.23;;
24173;SDS011;12324;48.146;11.502;2023-05-10T01:10:17;2.00;;;1.35;;
24173;SDS011;12324;48.146;11.502;2023-05-10T01:12:45;1.15;;;1.05;;
24173;SDS011;12324;48.146;11.502;2023-05-10T01:15:13;0.98;;;0.95;;
24173;SDS011;12324;48.146;11.502;2023-05-10T01:17:42;1.98;;;1.25;;
24173;SDS011;12324;48.146;11.502;2023-05-10T01:20:09;2.42;;;1.10;;
24173;SDS011;12324;48.146;11.502;2023-05-10T01:28:13;1.13;;;1.00;;
24173;SDS011;12324;48.146;11.502;2023-05-10T01:36:29;3.28;;;1.60;;
24173;SDS011;12324;48.146;11.502;2023-05-10T01:46:53;1.85;;;1.35;;
24173;SDS011;12324;48.146;11.502;2023-05-10T01:49:25;2.03;;;1.08;;
24173;SDS011;12324;48.146;11.502;2023-05-10T01:51:53;0.68;;;0.68;;
24173;SDS011;12324;48.146;11.502;2023-05-10T01:54:21;0.98;;;0.98;;
24173;SDS011;12324;48.146;11.502;2023-05-10T01:56:50;1.70;;;1.30;;
24173;SDS011;12324;48.146;11.502;2023-05-10T01:59:19;1.10;;;1.00;;
24173;SDS011;12324;48.146;11.502;2023-05-10T02:01:47;1.27;;;1.17;;
24173;SDS011;12324;48.146;11.502;2023-05-10T02:04:15;3.50;;;1.23;;
24173;SDS011;12324;48.146;11.502;2023-05-10T02:06:43;2.35;;;1.35;;
24173;SDS011;12324;48.146;11.502;2023-05-10T02:09:11;1.92;;;1.10;;
24173;SDS011;12324;48.146;11.502;2023-05-10T02:11:40;1.08;;;0.82;;
24173;SDS011;12324;48.146;11.502;2023-05-10T02:14:08;1.77;;;1.15;;
24173;SDS011;12324;48.146;11.502;2023-05-10T02:16:36;1.38;;;1.05;;
24173;SDS011;12324;48.146;11.502;2023-05-10T02:19:04;1.23;;;1.05;;
24173;SDS011;12324;48.146;11.502;2023-05-10T02:21:32;1.40;;;1.05;;
24173;SDS011;12324;48.146;11.502;2023-05-10T02:24:01;2.25;;;1.10;;
24173;SDS011;12324;48.146;11.502;2023-05-10T02:26:29;1.98;;;1.15;;
24173;SDS011;12324;48.146;11.502;2023-05-10T02:28:58;2.53;;;1.10;;
24173;SDS011;12324;48.146;11.502;2023-05-10T02:31:25;1.70;;;1.25;;
24173;SDS011;12324;48.146;11.502;2023-05-10T02:33:52;0.80;;;0.80;;
24173;SDS011;12324;48.146;11.502;2023-05-10T02:36:20;0.70;;;0.70;;
24173;SDS011;12324;48.146;11.502;2023-05-10T02:38:47;1.50;;;1.00;;
24173;SDS011;12324;48.146;11.502;2023-05-10T02:41:15;2.60;;;1.20;;
24173;SDS011;12324;48.146;11.502;2023-05-10T02:43:43;1.00;;;0.90;;
24173;SDS011;12324;48.146;11.502;2023-05-10T02:46:10;1.20;;;1.10;;
24173;SDS011;12324;48.146;11.502;2023-05-10T02:48:37;1.15;;;1.05;;
24173;SDS011;12324;48.146;11.502;2023-05-10T02:51:05;1.25;;;1.08;;
24173;SDS011;12324;48.146;11.502;2023-05-10T02:53:34;1.20;;;1.00;;
24173;SDS011;12324;48.146;11.502;2023-05-10T02:56:04;2.30;;;1.00;;
24173;SDS011;12324;48.146;11.502;2023-05-10T02:58:33;1.00;;;0.90;;
24173;SDS011;12324;48.146;11.502;2023-05-10T03:01:00;1.73;;;0.88;;
24173;SDS011;12324;48.146;11.502;2023-05-10T03:03:27;2.45;;;1.05;;
24173;SDS011;12324;48.146;11.502;2023-05-10T03:05:54;1.48;;;0.90;;
24173;SDS011;12324;48.146;11.502;2023-05-10T03:08:22;2.05;;;1.15;;
24173;SDS011;12324;48.146;11.502;2023-05-10T03:13:35;1.40;;;1.13;;
24173;SDS011;12324;48.146;11.502;2023-05-10T03:16:08;1.17;;;1.08;;
24173;SDS011;12324;48.146;11.502;2023-05-10T03:18:38;1.95;;;1.40;;
24173;SDS011;12324;48.146;11.502;2023-05-10T03:21:10;1.85;;;0.80;;
24173;SDS011;12324;48.146;11.502;2023-05-10T03:23:50;2.17;;;1.02;;
24173;SDS011;12324;48.146;11.502;2023-05-10T03:26:20;1.50;;;1.13;;
24173;SDS011;12324;48.146;11.502;2023-05-10T03:28:47;1.13;;;1.02;;
24173;SDS011;12324;48.146;11.502;2023-05-10T03:31:15;0.90;;;0.90;;
24173;SDS011;12324;48.146;11.502;2023-05-10T03:33:48;1.00;;;0.90;;
24173;SDS011;12324;48.146;11.502;2023-05-10T03:36:16;1.20;;;1.10;;
24173;SDS011;12324;48.146;11.502;2023-05-10T03:38:43;1.33;;;1.00;;
24173;SDS011;12324;48.146;11.502;2023-05-10T03:41:10;1.45;;;1.10;;
24173;SDS011;12324;48.146;11.502;2023-05-10T03:43:37;2.65;;;0.90;;
24173;SDS011;12324;48.146;11.502;2023-05-10T03:46:05;0.80;;;0.80;;
24173;SDS011;12324;48.146;11.502;2023-05-10T03:48:32;1.00;;;0.80;;
24173;SDS011;12324;48.146;11.502;2023-05-10T03:50:59;1.00;;;0.98;;
24173;SDS011;12324;48.146;11.502;2023-05-10T03:53:26;1.83;;;0.90;;
24173;SDS011;12324;48.146;11.502;2023-05-10T03:55:53;1.10;;;1.00;;
24173;SDS011;12324;48.146;11.502;2023-05-10T03:58:20;1.05;;;0.98;;
24173;SDS011;12324;48.146;11.502;2023-05-10T04:00:48;1.05;;;0.88;;
24173;SDS011;12324;48.146;11.502;2023-05-10T04:03:15;1.60;;;0.90;;
24173;SDS011;12324;48.146;11.502;2023-05-10T04:05:42;0.50;;;0.50;;
24173;SDS011;12324;48.146;11.502;2023-05-10T04:08:09;0.80;;;0.80;;
24173;SDS011;12324;48.146;11.502;2023-05-10T04:10:36;1.10;;;1.00;;
24173;SDS011;12324;48.146;11.502;2023-05-10T04:13:03;0.95;;;0.88;;
24173;SDS011;12324;48.146;11.502;2023-05-10T04:15:30;0.90;;;0.85;;
24173;SDS011;12324;48.146;11.502;2023-05-10T04:17:57;0.82;;;0.77;;
24173;SDS011;12324;48.146;11.502;2023-05-10T04:20:25;1.85;;;1.00;;
24173;SDS011;12324;48.146;11.502;2023-05-10T04:22:52;0.80;;;0.80;;
24173;SDS011;12324;48.146;11.502;2023-05-10T04:25:19;1.25;;;1.00;;
24173;SDS011;12324;48.146;11.502;2023-05-10T04:27:46;0.70;;;0.70;;
24173;SDS011;12324;48.146;11.502;2023-05-10T04:30:13;1.23;;;0.90;;
24173;SDS011;12324;48.146;11.502;2023-05-10T04:32:41;1.10;;;0.93;;
24173;SDS011;12324;48.146;11.502;2023-05-10T04:35:08;1.65;;;0.82;;
24173;SDS011;12324;48.146;11.502;2023-05-10T04:37:36;1.35;;;1.00;;
24173;SDS011;12324;48.146;11.502;2023-05-10T04:40:03;0.70;;;0.65;;
24173;SDS011;12324;48.146;11.502;2023-05-10T04:42:31;1.08;;;0.98;;
24173;SDS011;12324;48.146;11.502;2023-05-10T04:44:58;1.05;;;0.82;;
24173;SDS011;12324;48.146;11.502;2023-05-10T04:47:25;1.02;;;0.93;;
24173;SDS011;12324;48.146;11.502;2023-05-10T04:49:52;1.30;;;0.93;;
24173;SDS011;12324;48.146;11.502;2023-05-10T04:52:19;1.13;;;0.80;;
24173;SDS011;12324;48.146;11.502;2023-05-10T04:54:46;1.00;;;0.90;;
24173;SDS011;12324;48.146;11.502;2023-05-10T04:57:13;0.80;;;0.80;;
24173;SDS011;12324;48.146;11.502;2023-05-10T04:59:40;0.70;;;0.70;;
24173;SDS011;12324;48.146;11.502;2023-05-10T05:02:08;0.60;;;0.60;;
24173;SDS011;12324;48.146;11.502;2023-05-10T05:04:35;2.67;;;1.02;;
24173;SDS011;12324;48.146;11.502;2023-05-10T05:07:02;0.90;;;0.90;;
24173;SDS011;12324;48.146;11.502;2023-05-10T05:09:29;0.60;;;0.60;;
24173;SDS011;12324;48.146;11.502;2023-05-10T05:11:58;2.08;;;1.17;;
24173;SDS011;12324;48.146;11.502;2023-05-10T05:14:24;0.63;;;0.63;;
24173;SDS011;12324;48.146;11.502;2023-05-10T05:16:52;1.08;;;0.80;;
24173;SDS011;12324;48.146;11.502;2023-05-10T05:19:19;0.90;;;0.90;;
24173;SDS011;12324;48.146;11.502;2023-05-10T05:21:45;0.70;;;0.70;;
24173;SDS011;12324;48.146;11.502;2023-05-10T05:24:12;0.63;;;0.63;;
24173;SDS011;12324;48.146;11.502;2023-05-10T05:26:40;0.73;;;0.73;;
24173;SDS011;12324;48.146;11.502;2023-05-10T05:29:07;0.63;;;0.63;;
24173;SDS011;12324;48.146;11.502;2023-05-10T05:31:34;0.90;;;0.90;;
24173;SDS011;12324;48.146;11.502;2023-05-10T05:34:01;0.90;;;0.80;;
24173;SDS011;12324;48.146;11.502;2023-05-10T05:36:28;0.98;;;0.85;;
24173;SDS011;12324;48.146;11.502;2023-05-10T05:38:57;0.93;;;0.75;;
24173;SDS011;12324;48.146;11.502;2023-05-10T05:41:24;0.47;;;0.47;;
24173;SDS011;12324;48.146;11.502;2023-05-10T05:43:52;0.40;;;0.40;;
24173;SDS011;12324;48.146;11.502;2023-05-10T05:46:19;0.40;;;0.40;;
24173;SDS011;12324;48.146;11.502;2023-05-10T05:48:45;0.60;;;0.60;;
24173;SDS011;12324;48.146;11.502;2023-05-10T05:51:12;0.40;;;0.40;;
24173;SDS011;12324;48.146;11.502;2023-05-10T05:53:39;0.50;;;0.50;;
24173;SDS011;12324;48.146;11.502;2023-05-10T05:56:05;0.40;;;0.40;;
24173;SDS011;12324;48.146;11.502;2023-05-10T05:58:32;0.40;;;0.40;;
24173;SDS011;12324;48.146;11.502;2023-05-10T06:00:59;0.50;;;0.50;;
24173;SDS011;12324;48.146;11.502;2023-05-10T06:03:26;0.47;;;0.47;;
24173;SDS011;12324;48.146;11.502;2023-05-10T06:05:53;0.40;;;0.40;;
24173;SDS011;12324;48.146;11.502;2023-05-10T06:08:20;0.40;;;0.40;;
24173;SDS011;12324;48.146;11.502;2023-05-10T06:10:47;0.40;;;0.40;;
24173;SDS011;12324;48.146;11.502;2023-05-10T06:13:14;0.40;;;0.40;;
24173;SDS011;12324;48.146;11.502;2023-05-10T06:15:41;0.40;;;0.40;;
24173;SDS011;12324;48.146;11.502;2023-05-10T06:18:08;0.40;;;0.40;;
24173;SDS011;12324;48.146;11.502;2023-05-10T06:20:36;0.40;;;0.40;;
24173;SDS011;12324;48.146;11.502;2023-05-10T06:23:03;0.40;;;0.40;;
24173;SDS011;12324;48.146;11.502;2023-05-10T06:25:30;0.40;;;0.40;;
24173;SDS011;12324;48.146;11.502;2023-05-10T06:27:57;0.40;;;0.40;;
24173;SDS011;12324;48.146;11.502;2023-05-10T06:30:24;0.40;;;0.40;;
24173;SDS011;12324;48.146;11.502;2023-05-10T06:32:55;0.40;;;0.40;;
24173;SDS011;12324;48.146;11.502;2023-05-10T06:35:22;0.57;;;0.57;;
24173;SDS011;12324;48.146;11.502;2023-05-10T06:37:50;0.40;;;0.40;;
24173;SDS011;12324;48.146;11.502;2023-05-10T06:40:17;0.50;;;0.50;;
24173;SDS011;12324;48.146;11.502;2023-05-10T06:42:44;0.40;;;0.40;;
24173;SDS011;12324;48.146;11.502;2023-05-10T06:45:12;0.40;;;0.40;;
24173;SDS011;12324;48.146;11.502;2023-05-10T06:47:41;0.40;;;0.40;;
24173;SDS011;12324;48.146;11.502;2023-05-10T06:50:08;0.40;;;0.40;;
24173;SDS011;12324;48.146;11.502;2023-05-10T06:52:37;0.40;;;0.40;;
24173;SDS011;12324;48.146;11.502;2023-05-10T06:55:04;0.40;;;0.40;;
24173;SDS011;12324;48.146;11.502;2023-05-10T06:57:31;0.47;;;0.47;;
24173;SDS011;12324;48.146;11.502;2023-05-10T06:59:58;0.40;;;0.40;;
24173;SDS011;12324;48.146;11.502;2023-05-10T07:02:26;0.43;;;0.43;;
24173;SDS011;12324;48.146;11.502;2023-05-10T07:04:53;0.60;;;0.60;;
24173;SDS011;12324;48.146;11.502;2023-05-10T07:07:20;0.50;;;0.50;;
24173;SDS011;12324;48.146;11.502;2023-05-10T07:09:47;0.40;;;0.40;;
24173;SDS011;12324;48.146;11.502;2023-05-10T07:12:16;0.95;;;0.95;;
24173;SDS011;12324;48.146;11.502;2023-05-10T07:14:45;0.40;;;0.40;;
24173;SDS011;12324;48.146;11.502;2023-05-10T07:17:12;0.55;;;0.55;;
24173;SDS011;12324;48.146;11.502;2023-05-10T07:19:40;0.40;;;0.40;;
24173;SDS011;12324;48.146;11.502;2023-05-10T07:22:07;4.20;;;2.13;;
24173;SDS011;12324;48.146;11.502;2023-05-10T07:24:34;1.02;;;1.00;;
24173;SDS011;12324;48.146;11.502;2023-05-10T07:27:01;0.40;;;0.40;;
24173;SDS011;12324;48.146;11.502;2023-05-10T07:29:28;0.50;;;0.50;;
24173;SDS011;12324;48.146;11.502;2023-05-10T07:31:55;0.45;;;0.45;;
24173;SDS011;12324;48.146;11.502;2023-05-10T07:34:24;0.80;;;0.80;;
24173;SDS011;12324;48.146;11.502;2023-05-10T07:36:51;0.40;;;0.40;;
24173;SDS011;12324;48.146;11.502;2023-05-10T07:39:18;0.40;;;0.40;;
24173;SDS011;12324;48.146;11.502;2023-05-10T07:41:53;0.40;;;0.40;;
24173;SDS011;12324;48.146;11.502;2023-05-10T07:44:20;0.50;;;0.50;;
24173;SDS011;12324;48.146;11.502;2023-05-10T07:46:47;0.50;;;0.50;;
24173;SDS011;12324;48.146;11.502;2023-05-10T07:49:16;0.40;;;0.40;;
24173;SDS011;12324;48.146;11.502;2023-05-10T07:51:43;1.20;;;0.60;;
24173;SDS011;12324;48.146;11.502;2023-05-10T07:54:10;0.40;;;0.40;;
24173;SDS011;12324;48.146;11.502;2023-05-10T07:56:37;0.32;;;0.32;;
24173;SDS011;12324;48.146;11.502;2023-05-10T07:59:05;0.43;;;0.43;;
24173;SDS011;12324;48.146;11.502;2023-05-10T08:01:34;0.40;;;0.40;;
24173;SDS011;12324;48.146;11.502;2023-05-10T08:04:01;0.40;;;0.40;;
24173;SDS011;12324;48.146;11.502;2023-05-10T08:06:29;0.68;;;0.68;;
24173;SDS011;12324;48.146;11.502;2023-05-10T08:08:56;0.40;;;0.40;;
24173;SDS011;12324;48.146;11.502;2023-05-10T08:11:24;0.45;;;0.45;;
24173;SDS011;12324;48.146;11.502;2023-05-10T08:13:52;0.50;;;0.50;;
24173;SDS011;12324;48.146;11.502;2023-05-10T08:16:19;0.43;;;0.43;;
24173;SDS011;12324;48.146;11.502;2023-05-10T08:18:47;0.30;;;0.30;;
24173;SDS011;12324;48.146;11.502;2023-05-10T08:21:15;0.50;;;0.50;;
24173;SDS011;12324;48.146;11.502;2023-05-10T08:23:42;0.45;;;0.45;;
24173;SDS011;12324;48.146;11.502;2023-05-10T08:26:12;0.30;;;0.30;;
24173;SDS011;12324;48.146;11.502;2023-05-10T08:28:39;0.30;;;0.30;;
24173;SDS011;12324;48.146;11.502;2023-05-10T08:31:06;0.30;;;0.30;;
24173;SDS011;12324;48.146;11.502;2023-05-10T08:33:33;0.50;;;0.50;;
24173;SDS011;12324;48.146;11.502;2023-05-10T08:36:00;0.50;;;0.50;;
24173;SDS011;12324;48.146;11.502;2023-05-10T08:38:28;0.50;;;0.50;;
24173;SDS011;12324;48.146;11.502;2023-05-10T08:40:55;0.47;;;0.47;;
24173;SDS011;12324;48.146;11.502;2023-05-10T08:43:26;0.60;;;0.60;;
24173;SDS011;12324;48.146;11.502;2023-05-10T08:45:55;0.35;;;0.35;;
24173;SDS011;12324;48.146;11.502;2023-05-10T08:48:23;0.35;;;0.35;;
24173;SDS011;12324;48.146;11.502;2023-05-10T08:50:52;0.40;;;0.40;;
24173;SDS011;12324;48.146;11.502;2023-05-10T08:53:20;1.75;;;1.30;;
24173;SDS011;12324;48.146;11.502;2023-05-10T08:55:49;0.60;;;0.60;;
24173;SDS011;12324;48.146;11.502;2023-05-10T08:58:17;0.40;;;0.40;;
24173;SDS011;12324;48.146;11.502;2023-05-10T09:00:46;0.40;;;0.40;;
24173;SDS011;12324;48.146;11.502;2023-05-10T09:03:13;0.30;;;0.30;;
24173;SDS011;12324;48.146;11.502;2023-05-10T09:05:41;0.30;;;0.30;;
24173;SDS011;12324;48.146;11.502;2023-05-10T09:08:08;0.35;;;0.35;;
24173;SDS011;12324;48.146;11.502;2023-05-10T09:10:35;0.30;;;0.30;;
24173;SDS011;12324;48.146;11.502;2023-05-10T09:13:03;0.30;;;0.30;;
24173;SDS011;12324;48.146;11.502;2023-05-10T09:15:31;0.40;;;0.40;;
24173;SDS011;12324;48.146;11.502;2023-05-10T09:17:58;0.40;;;0.40;;
24173;SDS011;12324;48.146;11.502;2023-05-10T09:20:28;0.40;;;0.40;;
24173;SDS011;12324;48.146;11.502;2023-05-10T09:22:55;0.30;;;0.30;;
24173;SDS011;12324;48.146;11.502;2023-05-10T09:25:22;0.40;;;0.40;;
24173;SDS011;12324;48.146;11.502;2023-05-10T09:27:49;0.55;;;0.50;;
24173;SDS011;12324;48.146;11.502;2023-05-10T09:30:17;0.55;;;0.55;;
24173;SDS011;12324;48.146;11.502;2023-05-10T09:32:50;0.67;;;0.67;;
24173;SDS011;12324;48.146;11.502;2023-05-10T09:35:18;0.50;;;0.50;;
24173;SDS011;12324;48.146;11.502;2023-05-10T09:37:46;0.63;;;0.50;;
24173;SDS011;12324;48.146;11.502;2023-05-10T09:40:14;1.02;;;0.77;;
24173;SDS011;12324;48.146;11.502;2023-05-10T09:42:42;0.50;;;0.50;;
24173;SDS011;12324;48.146;11.502;2023-05-10T09:45:09;0.40;;;0.40;;
24173;SDS011;12324;48.146;11.502;2023-05-10T09:47:36;0.30;;;0.30;;
24173;SDS011;12324;48.146;11.502;2023-05-10T09:50:04;0.98;;;0.82;;
24173;SDS011;12324;48.146;11.502;2023-05-10T09:52:45;0.30;;;0.30;;
24173;SDS011;12324;48.146;11.502;2023-05-10T09:55:12;0.30;;;0.30;;
24173;SDS011;12324;48.146;11.502;2023-05-10T09:57:40;0.52;;;0.52;;
24173;SDS011;12324;48.146;11.502;2023-05-10T10:00:07;0.40;;;0.40;;
24173;SDS011;12324;48.146;11.502;2023-05-10T10:02:36;1.77;;;1.67;;
24173;SDS011;12324;48.146;11.502;2023-05-10T10:05:03;0.88;;;0.88;;
24173;SDS011;12324;48.146;11.502;2023-05-10T10:07:30;0.30;;;0.30;;
24173;SDS011;12324;48.146;11.502;2023-05-10T10:09:58;0.30;;;0.30;;
24173;SDS011;12324;48.146;11.502;2023-05-10T10:12:25;0.43;;;0.43;;
24173;SDS011;12324;48.146;11.502;2023-05-10T10:14:52;0.30;;;0.30;;
24173;SDS011;12324;48.146;11.502;2023-05-10T10:17:20;0.30;;;0.30;;
24173;SDS011;12324;48.146;11.502;2023-05-10T10:19:48;0.38;;;0.38;;
24173;SDS011;12324;48.146;11.502;2023-05-10T10:22:15;0.40;;;0.40;;
24173;SDS011;12324;48.146;11.502;2023-05-10T10:24:43;0.30;;;0.30;;
24173;SDS011;12324;48.146;11.502;2023-05-10T10:35:19;0.50;;;0.50;;
24173;SDS011;12324;48.146;11.502;2023-05-10T10:37:47;0.30;;;0.30;;
24173;SDS011;12324;48.146;11.502;2023-05-10T10:40:26;0.30;;;0.30;;
24173;SDS011;12324;48.146;11.502;2023-05-10T10:42:54;0.30;;;0.30;;
24173;SDS011;12324;48.146;11.502;2023-05-10T10:45:22;0.30;;;0.30;;
24173;SDS011;12324;48.146;11.502;2023-05-10T10:47:53;0.30;;;0.30;;
24173;SDS011;12324;48.146;11.502;2023-05-10T10:52:50;0.43;;;0.43;;
24173;SDS011;12324;48.146;11.502;2023-05-10T10:55:18;0.40;;;0.40;;
24173;SDS011;12324;48.146;11.502;2023-05-10T10:57:52;0.40;;;0.40;;
24173;SDS011;12324;48.146;11.502;2023-05-10T11:00:28;0.40;;;0.40;;
24173;SDS011;12324;48.146;11.502;2023-05-10T11:02:57;0.30;;;0.30;;
24173;SDS011;12324;48.146;11.502;2023-05-10T11:08:08;0.60;;;0.60;;
24173;SDS011;12324;48.146;11.502;2023-05-10T11:10:36;1.23;;;1.00;;
24173;SDS011;12324;48.146;11.502;2023-05-10T11:13:04;0.30;;;0.30;;
24173;SDS011;12324;48.146;11.502;2023-05-10T11:15:32;0.40;;;0.40;;
24173;SDS011;12324;48.146;11.502;2023-05-10T11:17:59;0.60;;;0.60;;
24173;SDS011;12324;48.146;11.502;2023-05-10T11:20:27;0.40;;;0.40;;
24173;SDS011;12324;48.146;11.502;2023-05-10T11:23:10;0.40;;;0.40;;
24173;SDS011;12324;48.146;11.502;2023-05-10T11:25:42;0.40;;;0.40;;
24173;SDS011;12324;48.146;11.502;2023-05-10T11:28:10;0.45;;;0.45;;
24173;SDS011;12324;48.146;11.502;2023-05-10T11:30:38;0.40;;;0.40;;
24173;SDS011;12324;48.146;11.502;2023-05-10T11:33:06;1.40;;;1.17;;
24173;SDS011;12324;48.146;11.502;2023-05-10T11:35:37;0.50;;;0.50;;
24173;SDS011;12324;48.146;11.502;2023-05-10T11:38:09;0.50;;;0.50;;
24173;SDS011;12324;48.146;11.502;2023-05-10T11:40:36;0.43;;;0.43;;
24173;SDS011;12324;48.146;11.502;2023-05-10T11:43:04;0.82;;;0.82;;
24173;SDS011;12324;48.146;11.502;2023-05-10T11:45:34;0.60;;;0.60;;
24173;SDS011;12324;48.146;11.502;2023-05-10T11:48:02;0.40;;;0.40;;
24173;SDS011;12324;48.146;11.502;2023-05-10T11:50:29;0.60;;;0.60;;
24173;SDS011;12324;48.146;11.502;2023-05-10T11:52:56;0.50;;;0.50;;
24173;SDS011;12324;48.146;11.502;2023-05-10T11:55:24;0.60;;;0.60;;
24173;SDS011;12324;48.146;11.502;2023-05-10T11:57:52;0.50;;;0.50;;
24173;SDS011;12324;48.146;11.502;2023-05-10T12:00:19;0.50;;;0.50;;
24173;SDS011;12324;48.146;11.502;2023-05-10T12:02:46;0.40;;;0.40;;
24173;SDS011;12324;48.146;11.502;2023-05-10T12:05:14;0.50;;;0.50;;
24173;SDS011;12324;48.146;11.502;2023-05-10T12:07:41;0.40;;;0.40;;
24173;SDS011;12324;48.146;11.502;2023-05-10T12:10:09;0.43;;;0.43;;
24173;SDS011;12324;48.146;11.502;2023-05-10T12:12:37;2.17;;;1.77;;
24173;SDS011;12324;48.146;11.502;2023-05-10T12:15:05;0.40;;;0.40;;
24173;SDS011;12324;48.146;11.502;2023-05-10T12:17:32;0.40;;;0.40;;
24173;SDS011;12324;48.146;11.502;2023-05-10T12:20:19;0.80;;;0.80;;
24173;SDS011;12324;48.146;11.502;2023-05-10T12:22:47;0.40;;;0.40;;
24173;SDS011;12324;48.146;11.502;2023-05-10T12:25:16;0.50;;;0.50;;
24173;SDS011;12324;48.146;11.502;2023-05-10T12:27:50;2.05;;;1.85;;
24173;SDS011;12324;48.146;11.502;2023-05-10T12:32:48;0.50;;;0.50;;
24173;SDS011;12324;48.146;11.502;2023-05-10T12:35:15;0.40;;;0.40;;
24173;SDS011;12324;48.146;11.502;2023-05-10T12:37:43;0.55;;;0.55;;
24173;SDS011;12324;48.146;11.502;2023-05-10T12:40:10;0.50;;;0.50;;
24173;SDS011;12324;48.146;11.502;2023-05-10T12:42:38;0.43;;;0.43;;
24173;SDS011;12324;48.146;11.502;2023-05-10T12:45:06;0.77;;;0.77;;
24173;SDS011;12324;48.146;11.502;2023-05-10T12:47:33;0.40;;;0.40;;
24173;SDS011;12324;48.146;11.502;2023-05-10T12:50:01;0.40;;;0.40;;
24173;SDS011;12324;48.146;11.502;2023-05-10T12:52:28;0.57;;;0.57;;
24173;SDS011;12324;48.146;11.502;2023-05-10T12:54:56;1.45;;;1.05;;
24173;SDS011;12324;48.146;11.502;2023-05-10T12:57:23;1.10;;;1.05;;
24173;SDS011;12324;48.146;11.502;2023-05-10T12:59:50;0.50;;;0.50;;
24173;SDS011;12324;48.146;11.502;2023-05-10T13:02:17;0.40;;;0.40;;
24173;SDS011;12324;48.146;11.502;2023-05-10T13:04:45;0.40;;;0.40;;
24173;SDS011;12324;48.146;11.502;2023-05-10T13:07:15;0.50;;;0.50;;
24173;SDS011;12324;48.146;11.502;2023-05-10T13:09:43;1.63;;;1.52;;
24173;SDS011;12324;48.146;11.502;2023-05-10T13:12:10;6.72;;;1.58;;
24173;SDS011;12324;48.146;11.502;2023-05-10T13:14:37;8.27;;;0.95;;
24173;SDS011;12324;48.146;11.502;2023-05-10T13:17:06;0.80;;;0.80;;
24173;SDS011;12324;48.146;11.502;2023-05-10T13:19:33;0.40;;;0.40;;
24173;SDS011;12324;48.146;11.502;2023-05-10T13:22:00;0.63;;;0.63;;
24173;SDS011;12324;48.146;11.502;2023-05-10T13:24:28;0.40;;;0.40;;
24173;SDS011;12324;48.146;11.502;2023-05-10T13:26:55;0.40;;;0.40;;
24173;SDS011;12324;48.146;11.502;2023-05-10T13:29:22;0.50;;;0.50;;
24173;SDS011;12324;48.146;11.502;2023-05-10T13:31:49;0.40;;;0.40;;
24173;SDS011;12324;48.146;11.502;2023-05-10T13:34:16;0.60;;;0.60;;
24173;SDS011;12324;48.146;11.502;2023-05-10T13:36:46;0.60;;;0.60;;
24173;SDS011;12324;48.146;11.502;2023-05-10T13:39:13;0.40;;;0.40;;
24173;SDS011;12324;48.146;11.502;2023-05-10T13:41:41;0.40;;;0.40;;
24173;SDS011;12324;48.146;11.502;2023-05-10T13:44:08;0.50;;;0.50;;
24173;SDS011;12324;48.146;11.502;2023-05-10T13:46:35;3.08;;;2.13;;
24173;SDS011;12324;48.146;11.502;2023-05-10T13:49:03;0.50;;;0.50;;
24173;SDS011;12324;48.146;11.502;2023-05-10T13:51:31;0.40;;;0.40;;
24173;SDS011;12324;48.146;11.502;2023-05-10T13:53:58;0.50;;;0.50;;
24173;SDS011;12324;48.146;11.502;2023-05-10T13:56:25;0.40;;;0.40;;
24173;SDS011;12324;48.146;11.502;2023-05-10T13:58:52;0.40;;;0.40;;
24173;SDS011;12324;48.146;11.502;2023-05-10T14:01:20;0.40;;;0.40;;
24173;SDS011;12324;48.146;11.502;2023-05-10T14:03:47;0.60;;;0.60;;
24173;SDS011;12324;48.146;11.502;2023-05-10T14:06:14;0.43;;;0.43;;
24173;SDS011;12324;48.146;11.502;2023-05-10T14:08:41;0.70;;;0.70;;
24173;SDS011;12324;48.146;11.502;2023-05-10T14:11:08;1.83;;;1.55;;
24173;SDS011;12324;48.146;11.502;2023-05-10T14:13:35;0.40;;;0.40;;
24173;SDS011;12324;48.146;11.502;2023-05-10T14:16:03;0.47;;;0.47;;
24173;SDS011;12324;48.146;11.502;2023-05-10T14:18:30;0.40;;;0.40;;
24173;SDS011;12324;48.146;11.502;2023-05-10T14:20:57;0.40;;;0.40;;
24173;SDS011;12324;48.146;11.502;2023-05-10T14:23:24;0.50;;;0.50;;
24173;SDS011;12324;48.146;11.502;2023-05-10T14:25:51;0.55;;;0.55;;
24173;SDS011;12324;48.146;11.502;2023-05-10T14:28:19;0.63;;;0.63;;
24173;SDS011;12324;48.146;11.502;2023-05-10T14:30:46;0.40;;;0.40;;
24173;SDS011;12324;48.146;11.502;2023-05-10T14:33:14;0.70;;;0.70;;
24173;SDS011;12324;48.146;11.502;2023-05-10T14:35:41;0.40;;;0.40;;
24173;SDS011;12324;48.146;11.502;2023-05-10T14:38:08;0.40;;;0.40;;
24173;SDS011;12324;48.146;11.502;2023-05-10T14:40:36;0.70;;;0.70;;
24173;SDS011;12324;48.146;11.502;2023-05-10T14:43:03;0.40;;;0.40;;
24173;SDS011;12324;48.146;11.502;2023-05-10T14:45:30;0.70;;;0.70;;
24173;SDS011;12324;48.146;11.502;2023-05-10T14:47:58;0.63;;;0.63;;
24173;SDS011;12324;48.146;11.502;2023-05-10T14:50:25;1.02;;;1.02;;
24173;SDS011;12324;48.146;11.502;2023-05-10T14:53:02;0.80;;;0.80;;
24173;SDS011;12324;48.146;11.502;2023-05-10T14:55:29;0.70;;;0.70;;
24173;SDS011;12324;48.146;11.502;2023-05-10T14:57:56;0.50;;;0.50;;
24173;SDS011;12324;48.146;11.502;2023-05-10T15:00:24;0.40;;;0.40;;
24173;SDS011;12324;48.146;11.502;2023-05-10T15:02:52;0.50;;;0.50;;
24173;SDS011;12324;48.146;11.502;2023-05-10T15:05:20;0.50;;;0.50;;
24173;SDS011;12324;48.146;11.502;2023-05-10T15:07:47;0.77;;;0.77;;
24173;SDS011;12324;48.146;11.502;2023-05-10T15:10:14;3.72;;;1.08;;
24173;SDS011;12324;48.146;11.502;2023-05-10T15:12:41;0.40;;;0.40;;
24173;SDS011;12324;48.146;11.502;2023-05-10T15:15:09;0.40;;;0.40;;